createdAt,value
2019-02-17T00:00:26.997Z,5.53
2019-02-17T00:02:53.003Z,5.54
2019-02-17T00:05:18.872Z,5.51
2019-02-17T00:07:44.801Z,5.45
2019-02-17T00:10:10.780Z,5.44
2019-02-17T00:12:39.758Z,5.27
2019-02-17T00:15:07.496Z,5.30
2019-02-17T00:17:33.395Z,5.28
2019-02-17T00:20:04.818Z,5.23
2019-02-17T00:22:30.758Z,5.34
2019-02-17T00:24:56.639Z,5.35
2019-02-17T00:27:22.501Z,5.34
2019-02-17T00:29:48.435Z,5.30
2019-02-17T00:32:14.326Z,5.31
2019-02-17T00:34:40.186Z,5.28
2019-02-17T00:37:06.105Z,5.10
2019-02-17T00:39:31.979Z,5.12
2019-02-17T00:41:57.861Z,5.13
2019-02-17T00:44:24.020Z,5.25
2019-02-17T00:46:49.914Z,5.15
2019-02-17T00:49:16.081Z,5.15
2019-02-17T00:51:43.714Z,5.22
2019-02-17T00:54:09.834Z,5.24
2019-02-17T00:56:35.940Z,5.29
2019-02-17T00:59:10.197Z,5.23
2019-02-17T01:01:31.721Z,5.23
2019-02-17T01:03:57.738Z,5.23
2019-02-17T01:06:23.665Z,5.24
2019-02-17T01:08:49.533Z,5.24
2019-02-17T01:11:15.586Z,5.09
2019-02-17T01:13:41.445Z,5.08
2019-02-17T01:16:07.327Z,5.01
2019-02-17T01:18:33.258Z,4.92
2019-02-17T01:20:59.360Z,5.06
2019-02-17T01:23:25.348Z,4.98
2019-02-17T01:25:51.350Z,4.92
2019-02-17T01:28:17.374Z,5.11
2019-02-17T01:30:43.411Z,5.01
2019-02-17T01:33:09.482Z,4.97
2019-02-17T01:35:35.387Z,4.81
2019-02-17T01:38:01.343Z,4.81
2019-02-17T01:40:27.340Z,4.72
2019-02-17T01:42:53.227Z,4.79
2019-02-17T01:45:19.098Z,4.75
2019-02-17T01:47:44.991Z,4.73
2019-02-17T01:50:11.055Z,4.79
2019-02-17T01:52:37.027Z,4.83
2019-02-17T01:55:04.937Z,4.82
2019-02-17T01:57:30.912Z,4.80
2019-02-17T01:59:56.841Z,4.78
2019-02-17T02:02:22.726Z,4.77
2019-02-17T02:04:48.592Z,4.76
2019-02-17T02:07:14.686Z,4.80
2019-02-17T02:09:40.601Z,4.92
2019-02-17T02:12:06.547Z,4.87
2019-02-17T02:14:32.527Z,4.86
2019-02-17T02:16:58.527Z,4.74
2019-02-17T02:19:24.713Z,4.65
2019-02-17T02:21:50.613Z,4.70
2019-02-17T02:24:20.575Z,4.59
2019-02-17T02:26:46.475Z,4.54
2019-02-17T02:29:12.427Z,4.61
2019-02-17T02:31:38.354Z,4.64
2019-02-17T02:34:04.409Z,4.47
2019-02-17T02:36:30.299Z,4.39
2019-02-17T02:38:56.219Z,4.45
2019-02-17T02:41:22.292Z,4.51
2019-02-17T02:43:48.301Z,4.48
2019-02-17T02:46:14.290Z,4.48
2019-02-17T02:48:40.273Z,4.43
2019-02-17T02:51:06.303Z,4.40
2019-02-17T02:53:32.285Z,4.33
2019-02-17T02:55:58.305Z,4.26
2019-02-17T02:58:24.180Z,4.27
2019-02-17T03:00:50.043Z,4.41
2019-02-17T03:03:16.179Z,4.41
2019-02-17T03:05:43.968Z,4.27
2019-02-17T03:08:10.044Z,4.27
2019-02-17T03:10:35.934Z,4.19
2019-02-17T03:13:01.823Z,4.12
2019-02-17T03:15:27.756Z,4.12
2019-02-17T03:17:53.710Z,4.08
2019-02-17T03:20:19.597Z,4.07
2019-02-17T03:22:45.488Z,4.23
2019-02-17T03:25:15.006Z,4.35
2019-02-17T03:27:40.993Z,4.37
2019-02-17T03:30:08.889Z,4.40
2019-02-17T03:32:34.812Z,4.40
2019-02-17T03:35:00.672Z,4.44
2019-02-17T03:37:26.648Z,4.42
2019-02-17T03:39:52.716Z,4.55
2019-02-17T03:42:18.785Z,4.54
2019-02-17T03:44:44.784Z,4.50
2019-02-17T03:47:10.668Z,4.48
2019-02-17T03:49:36.518Z,4.32
2019-02-17T03:52:02.546Z,4.20
2019-02-17T03:54:28.433Z,4.12
2019-02-17T03:56:54.338Z,4.11
2019-02-17T03:59:20.426Z,4.05
2019-02-17T04:01:46.475Z,4.12
2019-02-17T04:04:12.373Z,4.18
2019-02-17T04:06:38.427Z,3.98
2019-02-17T04:09:05.419Z,3.99
2019-02-17T04:11:31.294Z,3.97
2019-02-17T04:13:57.472Z,4.19
2019-02-17T04:16:23.523Z,4.23
2019-02-17T04:18:49.401Z,4.23
2019-02-17T04:21:15.282Z,4.22
2019-02-17T04:23:41.329Z,4.17
2019-02-17T04:26:07.295Z,4.24
2019-02-17T04:28:33.273Z,4.16
2019-02-17T04:30:59.358Z,3.99
2019-02-17T04:33:25.380Z,3.96
2019-02-17T04:35:51.273Z,3.95
2019-02-17T04:38:17.270Z,4.14
2019-02-17T04:40:43.265Z,4.32
2019-02-17T04:43:09.249Z,4.26
2019-02-17T04:45:35.172Z,4.25
2019-02-17T04:48:01.207Z,4.19
2019-02-17T04:50:27.264Z,4.23
2019-02-17T04:52:53.268Z,4.24
2019-02-17T04:55:19.270Z,4.15
2019-02-17T04:57:45.260Z,4.21
2019-02-17T05:00:11.360Z,4.21
2019-02-17T05:02:37.265Z,4.18
2019-02-17T05:05:04.604Z,4.06
2019-02-17T05:07:30.583Z,4.06
2019-02-17T05:09:56.504Z,4.15
2019-02-17T05:12:22.473Z,4.19
2019-02-17T05:14:48.438Z,4.21
2019-02-17T05:17:14.390Z,4.24
2019-02-17T05:19:40.265Z,4.26
2019-02-17T05:22:06.338Z,4.25
2019-02-17T05:24:32.392Z,4.16
2019-02-17T05:27:01.979Z,4.05
2019-02-17T05:29:27.978Z,3.92
2019-02-17T05:31:53.892Z,4.09
2019-02-17T05:34:19.885Z,4.02
2019-02-17T05:36:46.014Z,4.01
2019-02-17T05:39:12.007Z,4.04
2019-02-17T05:41:37.930Z,3.90
2019-02-17T05:44:03.827Z,4.00
2019-02-17T05:46:29.822Z,4.03
2019-02-17T05:48:55.721Z,4.04
2019-02-17T05:51:21.808Z,4.04
2019-02-17T05:53:47.727Z,3.99
2019-02-17T05:56:13.620Z,3.95
2019-02-17T05:58:39.544Z,3.95
2019-02-17T06:01:07.337Z,3.90
2019-02-17T06:03:33.319Z,3.78
2019-02-17T06:05:59.223Z,3.58
2019-02-17T06:08:25.204Z,3.59
2019-02-17T06:10:51.232Z,3.68
2019-02-17T06:13:17.222Z,3.62
2019-02-17T06:15:43.209Z,3.64
2019-02-17T06:18:09.280Z,3.74
2019-02-17T06:20:35.179Z,3.62
2019-02-17T06:23:01.136Z,3.61
2019-02-17T06:25:27.160Z,3.70
2019-02-17T06:27:53.101Z,3.68
2019-02-17T06:30:22.371Z,3.83
2019-02-17T06:32:48.429Z,3.84
2019-02-17T06:35:14.310Z,3.88
2019-02-17T06:37:40.197Z,3.95
2019-02-17T06:40:06.918Z,3.94
2019-02-17T06:42:32.915Z,3.84
2019-02-17T06:44:58.813Z,3.91
2019-02-17T06:47:26.657Z,3.85
2019-02-17T06:49:52.641Z,3.89
2019-02-17T06:52:18.518Z,3.86
2019-02-17T06:54:46.641Z,3.81
2019-02-17T06:57:14.530Z,3.76
2019-02-17T06:59:40.540Z,3.87
2019-02-17T07:02:06.623Z,3.88
2019-02-17T07:04:37.384Z,3.98
2019-02-17T07:07:03.954Z,4.06
2019-02-17T07:09:29.807Z,4.19
2019-02-17T07:11:56.904Z,4.27
2019-02-17T07:14:23.099Z,4.26
2019-02-17T07:16:48.972Z,4.36
2019-02-17T07:19:15.044Z,4.32
2019-02-17T07:21:40.961Z,4.49
2019-02-17T07:24:06.952Z,4.66
2019-02-17T07:26:32.862Z,4.81
2019-02-17T07:28:58.723Z,4.82
2019-02-17T07:31:34.358Z,4.81
2019-02-17T07:33:52.629Z,4.87
2019-02-17T07:36:18.497Z,4.91
2019-02-17T07:38:44.413Z,4.98
2019-02-17T07:41:10.309Z,4.99
2019-02-17T07:43:36.331Z,5.05
2019-02-17T07:46:02.410Z,5.04
2019-02-17T07:48:28.319Z,5.10
2019-02-17T07:50:56.724Z,5.25
2019-02-17T07:53:22.171Z,5.32
2019-02-17T07:55:48.274Z,5.36
2019-02-17T07:58:14.385Z,5.43
2019-02-17T08:00:40.281Z,5.60
2019-02-17T08:03:06.195Z,5.68
2019-02-17T08:05:32.116Z,5.81
2019-02-17T08:07:58.087Z,5.90
2019-02-17T08:10:24.038Z,5.93
2019-02-17T08:12:50.147Z,6.03
2019-02-17T08:15:16.174Z,6.16
2019-02-17T08:17:42.074Z,6.23
2019-02-17T08:20:10.933Z,6.23
2019-02-17T08:22:36.897Z,6.43
2019-02-17T08:25:04.637Z,6.58
2019-02-17T08:27:30.620Z,6.65
2019-02-17T08:29:56.500Z,6.75
2019-02-17T08:32:22.435Z,6.88
2019-02-17T08:34:48.290Z,6.99
2019-02-17T08:37:14.216Z,7.09
2019-02-17T08:39:40.105Z,7.14
2019-02-17T08:42:06.110Z,7.25
2019-02-17T08:44:32.077Z,7.29
2019-02-17T08:46:59.955Z,7.31
2019-02-17T08:49:25.846Z,7.38
2019-02-17T08:51:51.744Z,7.50
2019-02-17T08:54:17.602Z,7.70
2019-02-17T08:56:43.569Z,7.76
2019-02-17T08:59:09.603Z,7.92
2019-02-17T09:01:35.501Z,8.00
2019-02-17T09:04:01.749Z,8.10
2019-02-17T09:06:27.655Z,8.28
2019-02-17T09:08:53.529Z,8.43
2019-02-17T09:11:21.317Z,8.81
2019-02-17T09:13:47.199Z,8.80
2019-02-17T09:16:13.104Z,9.00
2019-02-17T09:18:39.086Z,9.25
2019-02-17T09:21:05.030Z,9.28
2019-02-17T09:23:30.916Z,9.31
2019-02-17T09:25:56.821Z,9.45
2019-02-17T09:28:22.836Z,9.58
2019-02-17T09:30:48.695Z,9.76
2019-02-17T09:33:18.727Z,9.88
2019-02-17T09:35:44.830Z,10.00
2019-02-17T09:38:10.716Z,10.06
2019-02-17T09:40:36.671Z,10.10
2019-02-17T09:43:02.761Z,10.18
2019-02-17T09:45:28.621Z,10.30
2019-02-17T09:47:54.483Z,10.42
2019-02-17T09:50:20.562Z,10.45
2019-02-17T09:52:46.431Z,10.70
2019-02-17T09:55:12.407Z,10.77
2019-02-17T09:57:38.939Z,10.84
2019-02-17T10:00:08.280Z,10.89
2019-02-17T10:02:34.248Z,10.97
2019-02-17T10:05:00.401Z,11.02
2019-02-17T10:07:26.379Z,11.18
2019-02-17T10:09:52.246Z,11.22
2019-02-17T10:12:18.131Z,11.33
2019-02-17T10:14:44.111Z,11.42
2019-02-17T10:17:10.004Z,11.56
2019-02-17T10:19:35.881Z,11.63
2019-02-17T10:22:01.859Z,11.70
2019-02-17T10:24:28.093Z,11.76
2019-02-17T10:26:53.963Z,11.75
2019-02-17T10:29:19.956Z,11.85
2019-02-17T10:31:45.980Z,11.68
2019-02-17T10:34:12.009Z,11.80
2019-02-17T10:36:37.900Z,11.94
2019-02-17T10:39:05.087Z,11.94
2019-02-17T10:41:31.095Z,11.81
2019-02-17T10:43:57.048Z,11.80
2019-02-17T10:46:22.976Z,11.99
2019-02-17T10:48:48.964Z,11.95
2019-02-17T10:51:14.824Z,12.05
2019-02-17T10:53:40.878Z,12.16
2019-02-17T10:56:06.768Z,12.25
2019-02-17T10:58:32.671Z,12.27
2019-02-17T11:00:58.703Z,12.19
2019-02-17T11:03:24.700Z,12.29
2019-02-17T11:05:53.723Z,12.37
2019-02-17T11:08:19.607Z,12.30
2019-02-17T11:10:45.695Z,12.35
2019-02-17T11:13:11.639Z,12.30
2019-02-17T11:15:37.833Z,12.54
2019-02-17T11:18:03.796Z,12.45
2019-02-17T11:20:29.691Z,12.48
2019-02-17T11:22:55.769Z,12.39
2019-02-17T11:25:21.667Z,12.67
2019-02-17T11:27:47.655Z,12.71
2019-02-17T11:30:18.917Z,12.72
2019-02-17T11:32:44.835Z,12.80
2019-02-17T11:35:10.943Z,12.85
2019-02-17T11:37:36.925Z,12.82
2019-02-17T11:40:05.651Z,12.93
2019-02-17T11:42:31.494Z,12.89
2019-02-17T11:44:57.584Z,12.99
2019-02-17T11:47:23.499Z,13.16
2019-02-17T11:49:49.385Z,13.20
2019-02-17T11:52:15.344Z,13.28
2019-02-17T11:54:41.264Z,13.31
2019-02-17T11:57:07.180Z,13.48
2019-02-17T11:59:33.054Z,13.63
2019-02-17T12:01:58.959Z,13.59
2019-02-17T12:04:24.875Z,13.67
2019-02-17T12:06:50.766Z,13.73
2019-02-17T12:09:16.778Z,13.75
2019-02-17T12:11:42.641Z,13.89
2019-02-17T12:14:08.510Z,14.08
2019-02-17T12:16:36.957Z,14.13
2019-02-17T12:19:02.404Z,15.10
2019-02-17T12:21:30.359Z,16.89
2019-02-17T12:24:14.968Z,16.38
2019-02-17T12:26:42.904Z,15.85
2019-02-17T12:29:13.444Z,16.46
2019-02-17T12:31:39.818Z,18.24
2019-02-17T12:34:05.818Z,18.06
2019-02-17T12:36:34.947Z,20.97
2019-02-17T12:39:01.107Z,20.22
2019-02-17T12:41:27.077Z,23.99
2019-02-17T12:43:53.050Z,22.76
2019-02-17T12:46:18.982Z,22.89
2019-02-17T12:48:44.940Z,23.54
2019-02-17T12:51:11.035Z,22.87
2019-02-17T12:53:36.954Z,21.01
2019-02-17T12:56:03.035Z,17.86
2019-02-17T12:58:30.205Z,21.16
2019-02-17T13:00:56.262Z,27.90
2019-02-17T13:03:28.482Z,26.13
2019-02-17T13:05:50.099Z,26.39
2019-02-17T13:08:16.125Z,26.24
2019-02-17T13:10:42.003Z,29.52
2019-02-17T13:13:07.911Z,29.26
2019-02-17T13:15:33.771Z,30.94
2019-02-17T13:17:59.770Z,32.12
2019-02-17T13:20:25.746Z,28.74
2019-02-17T13:22:51.685Z,29.03
2019-02-17T13:25:17.567Z,32.38
2019-02-17T13:27:43.665Z,28.90
2019-02-17T13:30:21.413Z,30.11
2019-02-17T13:32:47.500Z,31.14
2019-02-17T13:35:13.510Z,29.72
2019-02-17T13:37:39.624Z,25.74
2019-02-17T13:40:08.942Z,28.58
2019-02-17T13:42:34.808Z,28.08
2019-02-17T13:45:00.727Z,29.90
2019-02-17T13:47:26.629Z,29.96
2019-02-17T13:49:52.620Z,25.20
2019-02-17T13:52:18.593Z,27.76
2019-02-17T13:54:44.466Z,28.99
2019-02-17T13:57:10.568Z,28.49
2019-02-17T13:59:36.544Z,28.20
2019-02-17T14:02:02.407Z,29.24
2019-02-17T14:04:28.313Z,29.76
2019-02-17T14:06:54.587Z,32.09
2019-02-17T14:09:20.511Z,30.44
2019-02-17T14:11:46.411Z,32.14
2019-02-17T14:14:12.324Z,30.88
2019-02-17T14:16:38.300Z,27.25
2019-02-17T14:19:04.243Z,30.19
2019-02-17T14:21:30.110Z,30.91
2019-02-17T14:23:56.095Z,28.42
2019-02-17T14:26:22.091Z,29.70
2019-02-17T14:28:48.032Z,26.53
2019-02-17T14:31:13.999Z,29.71
2019-02-17T14:33:39.870Z,27.63
2019-02-17T14:36:05.770Z,28.39
2019-02-17T14:38:31.723Z,26.05
2019-02-17T14:40:57.693Z,30.78
2019-02-17T14:43:23.742Z,30.50
2019-02-17T14:45:49.616Z,28.22
2019-02-17T14:48:15.474Z,31.54
2019-02-17T14:50:41.463Z,30.07
2019-02-17T14:53:07.366Z,28.11
2019-02-17T14:55:33.418Z,27.94
2019-02-17T14:58:05.422Z,26.53
2019-02-17T15:00:27.152Z,28.29
2019-02-17T15:02:53.040Z,29.03
2019-02-17T15:05:19.024Z,29.23
2019-02-17T15:07:44.916Z,28.55
2019-02-17T15:10:12.279Z,29.16
2019-02-17T15:12:38.346Z,27.11
2019-02-17T15:15:09.308Z,27.67
2019-02-17T15:17:35.459Z,26.04
2019-02-17T15:20:01.491Z,27.23
2019-02-17T15:22:27.479Z,27.66
2019-02-17T15:24:53.325Z,28.33
2019-02-17T15:27:19.248Z,27.96
2019-02-17T15:29:45.218Z,26.85
2019-02-17T15:32:11.124Z,26.19
2019-02-17T15:34:37.061Z,23.19
2019-02-17T15:37:03.112Z,19.43
2019-02-17T15:39:29.106Z,17.65
2019-02-17T15:41:55.054Z,17.20
2019-02-17T15:44:21.047Z,17.04
2019-02-17T15:46:46.908Z,16.81
2019-02-17T15:49:12.815Z,16.05
2019-02-17T15:51:38.703Z,15.78
2019-02-17T15:54:04.698Z,15.66
2019-02-17T15:56:30.794Z,15.48
2019-02-17T15:58:56.746Z,15.39
2019-02-17T16:01:22.845Z,15.22
2019-02-17T16:03:48.825Z,15.11
2019-02-17T16:06:14.701Z,14.93
2019-02-17T16:08:40.706Z,14.74
2019-02-17T16:11:06.637Z,14.75
2019-02-17T16:13:32.499Z,14.63
2019-02-17T16:15:58.376Z,14.55
2019-02-17T16:18:24.433Z,14.42
2019-02-17T16:20:50.313Z,14.28
2019-02-17T16:23:16.263Z,14.28
2019-02-17T16:25:42.212Z,14.10
2019-02-17T16:28:08.094Z,13.97
2019-02-17T16:30:34.003Z,13.93
2019-02-17T16:32:59.869Z,13.79
2019-02-17T16:35:25.864Z,13.69
2019-02-17T16:37:51.775Z,13.61
2019-02-17T16:40:17.782Z,13.40
2019-02-17T16:42:43.835Z,13.03
2019-02-17T16:45:12.328Z,12.91
2019-02-17T16:47:38.192Z,12.92
2019-02-17T16:50:31.627Z,12.48
2019-02-17T16:52:59.512Z,12.22
2019-02-17T16:55:25.384Z,12.08
2019-02-17T16:57:51.613Z,11.96
2019-02-17T17:00:22.737Z,11.84
2019-02-17T17:02:49.836Z,11.82
2019-02-17T17:05:15.855Z,11.75
2019-02-17T17:07:41.737Z,11.60
2019-02-17T17:10:08.513Z,11.49
2019-02-17T17:12:34.639Z,11.37
2019-02-17T17:15:00.494Z,11.11
2019-02-17T17:17:26.469Z,11.02
2019-02-17T17:19:52.388Z,10.92
2019-02-17T17:22:18.383Z,10.79
2019-02-17T17:24:44.303Z,10.61
2019-02-17T17:27:10.377Z,10.58
2019-02-17T17:29:36.253Z,10.41
2019-02-17T17:32:02.356Z,10.51
2019-02-17T17:34:28.253Z,10.50
2019-02-17T17:36:54.184Z,10.45
2019-02-17T17:39:20.153Z,10.24
2019-02-17T17:41:46.057Z,10.18
2019-02-17T17:44:12.185Z,10.14
2019-02-17T17:46:38.054Z,10.16
2019-02-17T17:49:03.954Z,10.03
2019-02-17T17:51:30.061Z,9.97
2019-02-17T17:53:56.362Z,9.83
2019-02-17T17:56:22.245Z,9.65
2019-02-17T17:58:48.336Z,9.72
2019-02-17T18:01:14.205Z,9.90
2019-02-17T18:03:40.130Z,9.92
2019-02-17T18:06:06.146Z,9.83
2019-02-17T18:08:32.103Z,9.73
2019-02-17T18:10:58.038Z,9.60
2019-02-17T18:13:24.017Z,9.51
2019-02-17T18:15:49.998Z,9.51
2019-02-17T18:18:17.127Z,9.42
2019-02-17T18:20:43.008Z,9.45
2019-02-17T18:23:09.002Z,9.31
2019-02-17T18:25:34.879Z,9.28
2019-02-17T18:28:00.846Z,9.29
2019-02-17T18:30:26.836Z,9.23
2019-02-17T18:32:52.729Z,9.11
2019-02-17T18:35:20.496Z,9.10
2019-02-17T18:37:46.655Z,9.17
2019-02-17T18:40:16.216Z,9.26
2019-02-17T18:42:42.468Z,9.19
2019-02-17T18:45:10.730Z,9.17
2019-02-17T18:47:39.525Z,9.04
2019-02-17T18:50:11.282Z,9.02
2019-02-17T18:52:37.489Z,8.97
2019-02-17T18:55:05.656Z,8.94
2019-02-17T18:57:33.169Z,8.79
2019-02-17T19:00:01.520Z,8.67
2019-02-17T19:02:27.550Z,8.71
2019-02-17T19:04:55.588Z,8.53
2019-02-17T19:07:21.458Z,8.65
2019-02-17T19:09:47.489Z,8.89
2019-02-17T19:12:13.575Z,8.90
2019-02-17T19:14:42.435Z,8.89
2019-02-17T19:17:08.405Z,8.75
2019-02-17T19:19:34.343Z,8.73
2019-02-17T19:22:02.471Z,8.65
2019-02-17T19:24:28.491Z,8.63
2019-02-17T19:26:54.514Z,8.55
2019-02-17T19:29:20.449Z,8.36
2019-02-17T19:31:46.547Z,8.44
2019-02-17T19:34:12.459Z,8.23
2019-02-17T19:36:38.565Z,8.33
2019-02-17T19:39:04.639Z,8.39
2019-02-17T19:41:30.541Z,8.43
2019-02-17T19:43:56.616Z,8.30
2019-02-17T19:46:22.493Z,8.29
2019-02-17T19:48:48.370Z,8.22
2019-02-17T19:51:14.403Z,8.27
2019-02-17T19:53:40.330Z,8.30
2019-02-17T19:56:07.566Z,8.22
2019-02-17T19:58:33.624Z,8.19
2019-02-17T20:00:59.744Z,8.17
2019-02-17T20:03:30.576Z,8.04
2019-02-17T20:05:58.369Z,8.07
2019-02-17T20:08:24.370Z,7.96
2019-02-17T20:10:50.249Z,7.98
2019-02-17T20:13:16.342Z,7.90
2019-02-17T20:15:42.222Z,7.88
2019-02-17T20:18:08.153Z,7.76
2019-02-17T20:20:34.054Z,7.86
2019-02-17T20:22:59.922Z,7.85
2019-02-17T20:25:25.896Z,7.81
2019-02-17T20:27:51.998Z,7.77
2019-02-17T20:30:18.020Z,7.74
2019-02-17T20:32:44.143Z,7.71
2019-02-17T20:35:10.315Z,7.59
2019-02-17T20:37:36.474Z,7.71
2019-02-17T20:40:06.107Z,7.64
2019-02-17T20:42:32.745Z,7.54
2019-02-17T20:44:58.645Z,7.49
2019-02-17T20:47:27.911Z,7.48
2019-02-17T20:49:53.871Z,7.39
2019-02-17T20:52:19.726Z,7.34
2019-02-17T20:54:46.303Z,7.32
2019-02-17T20:57:12.319Z,7.35
2019-02-17T20:59:38.274Z,7.38
2019-02-17T21:02:04.611Z,7.44
2019-02-17T21:04:30.643Z,7.40
2019-02-17T21:06:56.480Z,7.36
2019-02-17T21:09:22.815Z,7.32
2019-02-17T21:11:49.118Z,7.24
2019-02-17T21:14:15.562Z,7.16
2019-02-17T21:16:42.007Z,7.07
2019-02-17T21:19:08.779Z,7.13
2019-02-17T21:21:35.790Z,7.07
2019-02-17T21:24:02.600Z,7.15
2019-02-17T21:26:29.108Z,7.15
2019-02-17T21:28:55.552Z,7.25
2019-02-17T21:31:21.897Z,7.23
2019-02-17T21:33:48.297Z,7.27
2019-02-17T21:36:22.901Z,7.28
2019-02-17T21:38:43.017Z,7.12
2019-02-17T21:41:10.045Z,7.10
2019-02-17T21:43:36.180Z,7.00
2019-02-17T21:46:02.225Z,7.01
2019-02-17T21:48:28.249Z,6.96
2019-02-17T21:50:54.215Z,6.81
2019-02-17T21:53:21.014Z,6.83
2019-02-17T21:55:47.261Z,6.78
2019-02-17T21:58:13.175Z,6.70
2019-02-17T22:00:39.181Z,6.71
2019-02-17T22:03:05.305Z,6.71
2019-02-17T22:05:31.415Z,6.73
2019-02-17T22:07:57.261Z,6.84
2019-02-17T22:10:23.128Z,6.78
2019-02-17T22:12:51.302Z,6.80
2019-02-17T22:15:21.721Z,6.87
2019-02-17T22:17:47.811Z,6.85
2019-02-17T22:20:13.922Z,6.79
2019-02-17T22:22:39.900Z,6.89
2019-02-17T22:25:07.140Z,6.77
2019-02-17T22:27:33.091Z,6.73
2019-02-17T22:29:58.982Z,6.84
2019-02-17T22:32:25.007Z,6.81
2019-02-17T22:34:50.891Z,6.72
2019-02-17T22:37:16.762Z,6.71
2019-02-17T22:39:42.662Z,6.66
2019-02-17T22:42:08.533Z,6.62
2019-02-17T22:44:34.618Z,6.49
2019-02-17T22:47:00.580Z,6.27
2019-02-17T22:49:29.964Z,6.35
2019-02-17T22:51:55.938Z,6.33
2019-02-17T22:54:21.864Z,6.53
2019-02-17T22:56:47.730Z,6.51
2019-02-17T22:59:13.756Z,6.54
2019-02-17T23:01:39.729Z,6.55
2019-02-17T23:04:05.820Z,6.48
2019-02-17T23:06:31.721Z,6.52
2019-02-17T23:08:57.741Z,6.50
2019-02-17T23:11:23.812Z,6.36
2019-02-17T23:13:50.036Z,6.34
2019-02-17T23:16:16.019Z,6.39
2019-02-17T23:18:42.018Z,6.27
2019-02-17T23:21:08.016Z,6.34
2019-02-17T23:23:33.986Z,6.27
2019-02-17T23:25:59.906Z,6.25
2019-02-17T23:28:25.986Z,6.23
2019-02-17T23:30:51.949Z,6.15
2019-02-17T23:33:17.995Z,6.12
2019-02-17T23:35:43.889Z,6.03
2019-02-17T23:38:09.907Z,6.12
2019-02-17T23:40:35.920Z,5.92
2019-02-17T23:43:02.030Z,5.97
2019-02-17T23:45:27.976Z,5.77
2019-02-17T23:47:53.982Z,5.89
2019-02-17T23:50:19.978Z,5.89
2019-02-17T23:52:45.890Z,5.87
2019-02-17T23:55:12.063Z,5.87
2019-02-17T23:57:38.558Z,5.89
